sensor_id;sensor_type;location;lat;lon;timestamp;pressure;altitude;pressure_sealevel;temperature;humidity
79118;BME280;68523;51.336;-0.846;2023-09-30T00:00:01;101575.00000000001;;;11.49;94.0
79118;BME280;68523;51.336;-0.846;2023-09-30T00:03:00;101575.00000000001;;;11.34;94.4
79118;BME280;68523;51.336;-0.846;2023-09-30T00:06:00;101585.0;;;11.32;95.0
79118;BME280;68523;51.336;-0.846;2023-09-30T00:09:01;101585.0;;;11.42;94.5
79118;BME280;68523;51.336;-0.846;2023-09-30T00:12:00;101585.0;;;11.37;94.5
79118;BME280;68523;51.336;-0.846;2023-09-30T00:15:00;101585.0;;;11.31;95.0
79118;BME280;68523;51.336;-0.846;2023-09-30T00:18:01;101585.0;;;11.30;95.3
79118;BME280;68523;51.336;-0.846;2023-09-30T00:21:00;101585.0;;;11.37;95.0
79118;BME280;68523;51.336;-0.846;2023-09-30T00:24:01;101575.00000000001;;;11.46;95.1
79118;BME280;68523;51.336;-0.846;2023-09-30T00:27:00;101585.0;;;11.50;95.1
79118;BME280;68523;51.336;-0.846;2023-09-30T00:30:00;101595.0;;;11.52;94.8
79118;BME280;68523;51.336;-0.846;2023-09-30T00:33:00;101585.0;;;11.50;95.0
79118;BME280;68523;51.336;-0.846;2023-09-30T00:36:06;101575.00000000001;;;11.40;95.1
79118;BME280;68523;51.336;-0.846;2023-09-30T00:39:01;101575.00000000001;;;11.39;95.2
79118;BME280;68523;51.336;-0.846;2023-09-30T00:42:01;101585.0;;;11.39;95.2
79118;BME280;68523;51.336;-0.846;2023-09-30T00:45:00;101585.0;;;11.40;95.4
79118;BME280;68523;51.336;-0.846;2023-09-30T00:48:01;101585.0;;;11.44;95.6
79118;BME280;68523;51.336;-0.846;2023-09-30T00:51:01;101595.0;;;11.42;95.4
79118;BME280;68523;51.336;-0.846;2023-09-30T00:54:01;101595.0;;;11.36;95.7
79118;BME280;68523;51.336;-0.846;2023-09-30T00:57:01;101595.0;;;11.53;95.3
79118;BME280;68523;51.336;-0.846;2023-09-30T01:00:01;101585.0;;;11.65;95.0
79118;BME280;68523;51.336;-0.846;2023-09-30T01:03:00;101575.00000000001;;;11.64;94.9
79118;BME280;68523;51.336;-0.846;2023-09-30T01:06:01;101575.00000000001;;;11.61;94.9
79118;BME280;68523;51.336;-0.846;2023-09-30T01:09:01;101595.0;;;11.44;95.2
79118;BME280;68523;51.336;-0.846;2023-09-30T01:12:01;101605.0;;;11.19;96.0
79118;BME280;68523;51.336;-0.846;2023-09-30T01:15:01;101595.0;;;11.14;96.1
79118;BME280;68523;51.336;-0.846;2023-09-30T01:18:00;101595.0;;;11.05;96.2
79118;BME280;68523;51.336;-0.846;2023-09-30T01:21:03;101585.0;;;11.01;96.2
79118;BME280;68523;51.336;-0.846;2023-09-30T01:24:00;101575.00000000001;;;10.96;96.5
79118;BME280;68523;51.336;-0.846;2023-09-30T01:27:00;101565.0;;;11.06;96.7
79118;BME280;68523;51.336;-0.846;2023-09-30T01:30:00;101575.00000000001;;;11.12;96.6
79118;BME280;68523;51.336;-0.846;2023-09-30T01:33:00;101585.0;;;11.17;96.4
79118;BME280;68523;51.336;-0.846;2023-09-30T01:36:01;101595.0;;;11.18;96.4
79118;BME280;68523;51.336;-0.846;2023-09-30T01:39:01;101585.0;;;11.17;96.4
79118;BME280;68523;51.336;-0.846;2023-09-30T01:42:00;101585.0;;;11.19;96.4
79118;BME280;68523;51.336;-0.846;2023-09-30T01:45:00;101575.00000000001;;;11.15;96.5
79118;BME280;68523;51.336;-0.846;2023-09-30T01:48:01;101555.0;;;11.06;96.8
79118;BME280;68523;51.336;-0.846;2023-09-30T01:51:00;101555.0;;;11.02;97.0
79118;BME280;68523;51.336;-0.846;2023-09-30T01:54:00;101565.0;;;11.04;97.1
79118;BME280;68523;51.336;-0.846;2023-09-30T01:57:00;101565.0;;;11.07;96.9
79118;BME280;68523;51.336;-0.846;2023-09-30T02:00:00;101565.0;;;11.02;96.9
79118;BME280;68523;51.336;-0.846;2023-09-30T02:03:00;101575.00000000001;;;11.01;97.0
79118;BME280;68523;51.336;-0.846;2023-09-30T02:06:01;101575.00000000001;;;11.08;96.8
79118;BME280;68523;51.336;-0.846;2023-09-30T02:09:00;101575.00000000001;;;10.92;96.9
79118;BME280;68523;51.336;-0.846;2023-09-30T02:12:00;101555.0;;;10.88;97.4
79118;BME280;68523;51.336;-0.846;2023-09-30T02:15:02;101555.0;;;10.95;97.3
79118;BME280;68523;51.336;-0.846;2023-09-30T02:18:01;101565.0;;;10.93;97.3
79118;BME280;68523;51.336;-0.846;2023-09-30T02:21:01;101565.0;;;10.88;97.3
79118;BME280;68523;51.336;-0.846;2023-09-30T02:24:00;101565.0;;;10.84;97.3
79118;BME280;68523;51.336;-0.846;2023-09-30T02:27:00;101555.0;;;10.77;97.4
79118;BME280;68523;51.336;-0.846;2023-09-30T02:30:00;101555.0;;;10.75;97.6
79118;BME280;68523;51.336;-0.846;2023-09-30T02:33:01;101545.0;;;10.73;97.8
79118;BME280;68523;51.336;-0.846;2023-09-30T02:36:01;101545.0;;;10.71;97.7
79118;BME280;68523;51.336;-0.846;2023-09-30T02:39:00;101535.0;;;10.75;97.9
79118;BME280;68523;51.336;-0.846;2023-09-30T02:42:00;101545.0;;;10.75;97.9
79118;BME280;68523;51.336;-0.846;2023-09-30T02:45:01;101535.0;;;10.70;97.8
79118;BME280;68523;51.336;-0.846;2023-09-30T02:48:00;101535.0;;;10.67;97.8
79118;BME280;68523;51.336;-0.846;2023-09-30T02:51:00;101535.0;;;10.60;97.9
79118;BME280;68523;51.336;-0.846;2023-09-30T02:54:02;101545.0;;;10.59;97.9
79118;BME280;68523;51.336;-0.846;2023-09-30T02:57:00;101545.0;;;10.57;98.2
79118;BME280;68523;51.336;-0.846;2023-09-30T03:00:01;101545.0;;;10.50;97.9
79118;BME280;68523;51.336;-0.846;2023-09-30T03:03:01;101545.0;;;10.36;98.0
79118;BME280;68523;51.336;-0.846;2023-09-30T03:06:01;101535.0;;;10.34;98.2
79118;BME280;68523;51.336;-0.846;2023-09-30T03:09:01;101545.0;;;10.27;98.3
79118;BME280;68523;51.336;-0.846;2023-09-30T03:12:01;101545.0;;;10.19;98.1
79118;BME280;68523;51.336;-0.846;2023-09-30T03:15:00;101555.0;;;10.18;98.1
79118;BME280;68523;51.336;-0.846;2023-09-30T03:18:01;101545.0;;;10.05;98.4
79118;BME280;68523;51.336;-0.846;2023-09-30T03:21:02;101555.0;;;10.03;98.6
79118;BME280;68523;51.336;-0.846;2023-09-30T03:24:01;101555.0;;;10.04;98.7
79118;BME280;68523;51.336;-0.846;2023-09-30T03:27:00;101555.0;;;10.01;98.6
79118;BME280;68523;51.336;-0.846;2023-09-30T03:30:01;101565.0;;;10.08;98.8
79118;BME280;68523;51.336;-0.846;2023-09-30T03:33:00;101565.0;;;9.98;98.7
79118;BME280;68523;51.336;-0.846;2023-09-30T03:36:01;101555.0;;;10.03;98.9
79118;BME280;68523;51.336;-0.846;2023-09-30T03:39:01;101555.0;;;10.03;99.0
79118;BME280;68523;51.336;-0.846;2023-09-30T03:42:01;101555.0;;;10.08;99.1
79118;BME280;68523;51.336;-0.846;2023-09-30T03:45:00;101535.0;;;10.24;99.3
79118;BME280;68523;51.336;-0.846;2023-09-30T03:48:01;101525.00000000001;;;10.31;99.3
79118;BME280;68523;51.336;-0.846;2023-09-30T03:51:08;101525.00000000001;;;10.23;99.1
79118;BME280;68523;51.336;-0.846;2023-09-30T03:54:00;101525.00000000001;;;10.30;99.2
79118;BME280;68523;51.336;-0.846;2023-09-30T03:57:00;101525.00000000001;;;10.27;99.3
79118;BME280;68523;51.336;-0.846;2023-09-30T04:00:01;101515.0;;;10.33;99.4
79118;BME280;68523;51.336;-0.846;2023-09-30T04:03:01;101505.0;;;10.36;99.3
79118;BME280;68523;51.336;-0.846;2023-09-30T04:06:01;101505.0;;;10.37;99.2
79118;BME280;68523;51.336;-0.846;2023-09-30T04:09:01;101515.0;;;10.30;99.1
79118;BME280;68523;51.336;-0.846;2023-09-30T04:12:00;101505.0;;;10.31;99.2
79118;BME280;68523;51.336;-0.846;2023-09-30T04:15:01;101495.0;;;10.36;99.2
79118;BME280;68523;51.336;-0.846;2023-09-30T04:18:00;101495.0;;;10.37;99.1
79118;BME280;68523;51.336;-0.846;2023-09-30T04:21:00;101505.0;;;10.37;99.0
79118;BME280;68523;51.336;-0.846;2023-09-30T04:24:01;101495.0;;;10.31;99.0
79118;BME280;68523;51.336;-0.846;2023-09-30T04:27:00;101485.0;;;10.31;99.3
79118;BME280;68523;51.336;-0.846;2023-09-30T04:30:00;101495.0;;;10.34;99.4
79118;BME280;68523;51.336;-0.846;2023-09-30T04:33:01;101495.0;;;10.41;99.4
79118;BME280;68523;51.336;-0.846;2023-09-30T04:36:00;101495.0;;;10.44;99.4
79118;BME280;68523;51.336;-0.846;2023-09-30T04:39:01;101505.0;;;10.43;99.2
79118;BME280;68523;51.336;-0.846;2023-09-30T04:42:01;101505.0;;;10.36;99.2
79118;BME280;68523;51.336;-0.846;2023-09-30T04:45:01;101495.0;;;10.49;99.3
79118;BME280;68523;51.336;-0.846;2023-09-30T04:48:00;101515.0;;;10.55;99.2
79118;BME280;68523;51.336;-0.846;2023-09-30T04:51:01;101515.0;;;10.58;99.1
79118;BME280;68523;51.336;-0.846;2023-09-30T04:54:01;101515.0;;;10.65;99.0
79118;BME280;68523;51.336;-0.846;2023-09-30T04:57:01;101515.0;;;10.59;99.0
79118;BME280;68523;51.336;-0.846;2023-09-30T05:00:01;101515.0;;;10.56;99.1
79118;BME280;68523;51.336;-0.846;2023-09-30T05:03:00;101515.0;;;10.55;99.0
79118;BME280;68523;51.336;-0.846;2023-09-30T05:06:01;101515.0;;;10.54;99.1
79118;BME280;68523;51.336;-0.846;2023-09-30T05:09:01;101515.0;;;10.56;99.3
79118;BME280;68523;51.336;-0.846;2023-09-30T05:12:00;101515.0;;;10.54;99.2
79118;BME280;68523;51.336;-0.846;2023-09-30T05:15:00;101515.0;;;10.54;99.1
79118;BME280;68523;51.336;-0.846;2023-09-30T05:18:01;101515.0;;;10.49;99.0
79118;BME280;68523;51.336;-0.846;2023-09-30T05:21:01;101515.0;;;10.47;99.2
79118;BME280;68523;51.336;-0.846;2023-09-30T05:24:00;101505.0;;;10.44;99.4
79118;BME280;68523;51.336;-0.846;2023-09-30T05:27:00;101505.0;;;10.46;99.4
79118;BME280;68523;51.336;-0.846;2023-09-30T05:30:00;101505.0;;;10.48;99.4
79118;BME280;68523;51.336;-0.846;2023-09-30T05:33:01;101515.0;;;10.47;99.3
79118;BME280;68523;51.336;-0.846;2023-09-30T05:36:00;101505.0;;;10.41;99.3
79118;BME280;68523;51.336;-0.846;2023-09-30T05:39:00;101505.0;;;10.42;99.4
79118;BME280;68523;51.336;-0.846;2023-09-30T05:42:01;101515.0;;;10.44;99.6
79118;BME280;68523;51.336;-0.846;2023-09-30T05:45:01;101515.0;;;10.52;99.5
79118;BME280;68523;51.336;-0.846;2023-09-30T05:48:01;101515.0;;;10.49;99.5
79118;BME280;68523;51.336;-0.846;2023-09-30T05:51:00;101515.0;;;10.47;99.4
79118;BME280;68523;51.336;-0.846;2023-09-30T05:54:00;101525.00000000001;;;10.47;99.4
79118;BME280;68523;51.336;-0.846;2023-09-30T05:57:00;101535.0;;;10.47;99.4
79118;BME280;68523;51.336;-0.846;2023-09-30T06:00:01;101545.0;;;10.44;99.3
79118;BME280;68523;51.336;-0.846;2023-09-30T06:03:01;101535.0;;;10.41;99.4
79118;BME280;68523;51.336;-0.846;2023-09-30T06:06:00;101545.0;;;10.46;99.4
79118;BME280;68523;51.336;-0.846;2023-09-30T06:09:00;101545.0;;;10.48;99.4
79118;BME280;68523;51.336;-0.846;2023-09-30T06:12:00;101555.0;;;10.50;99.4
79118;BME280;68523;51.336;-0.846;2023-09-30T06:15:01;101545.0;;;10.46;99.4
79118;BME280;68523;51.336;-0.846;2023-09-30T06:18:00;101545.0;;;10.52;99.5
79118;BME280;68523;51.336;-0.846;2023-09-30T06:21:00;101545.0;;;10.52;99.4
79118;BME280;68523;51.336;-0.846;2023-09-30T06:24:01;101545.0;;;10.52;99.3
79118;BME280;68523;51.336;-0.846;2023-09-30T06:27:00;101545.0;;;10.53;99.3
79118;BME280;68523;51.336;-0.846;2023-09-30T06:30:00;101545.0;;;10.52;99.1
79118;BME280;68523;51.336;-0.846;2023-09-30T06:33:01;101555.0;;;10.61;99.1
79118;BME280;68523;51.336;-0.846;2023-09-30T06:36:00;101565.0;;;10.63;99.0
79118;BME280;68523;51.336;-0.846;2023-09-30T06:39:01;101575.00000000001;;;10.62;99.1
79118;BME280;68523;51.336;-0.846;2023-09-30T06:42:00;101575.00000000001;;;10.62;99.1
79118;BME280;68523;51.336;-0.846;2023-09-30T06:45:01;101575.00000000001;;;10.59;98.9
79118;BME280;68523;51.336;-0.846;2023-09-30T06:48:00;101575.00000000001;;;10.56;98.9
79118;BME280;68523;51.336;-0.846;2023-09-30T06:51:01;101575.00000000001;;;10.48;99.0
79118;BME280;68523;51.336;-0.846;2023-09-30T06:54:00;101575.00000000001;;;10.45;99.3
79118;BME280;68523;51.336;-0.846;2023-09-30T06:57:00;101575.00000000001;;;10.49;99.1
79118;BME280;68523;51.336;-0.846;2023-09-30T07:00:00;101575.00000000001;;;10.57;99.1
79118;BME280;68523;51.336;-0.846;2023-09-30T07:03:01;101565.0;;;10.54;98.6
79118;BME280;68523;51.336;-0.846;2023-09-30T07:06:00;101565.0;;;10.59;98.5
79118;BME280;68523;51.336;-0.846;2023-09-30T07:09:00;101565.0;;;10.64;98.4
79118;BME280;68523;51.336;-0.846;2023-09-30T07:12:00;101565.0;;;10.73;98.6
79118;BME280;68523;51.336;-0.846;2023-09-30T07:15:01;101565.0;;;10.94;98.7
79118;BME280;68523;51.336;-0.846;2023-09-30T07:18:00;101575.00000000001;;;11.00;98.2
79118;BME280;68523;51.336;-0.846;2023-09-30T07:21:01;101575.00000000001;;;11.10;98.3
79118;BME280;68523;51.336;-0.846;2023-09-30T07:24:01;101585.0;;;11.29;98.0
79118;BME280;68523;51.336;-0.846;2023-09-30T07:27:01;101595.0;;;11.35;97.5
79118;BME280;68523;51.336;-0.846;2023-09-30T07:30:00;101595.0;;;11.41;97.3
79118;BME280;68523;51.336;-0.846;2023-09-30T07:33:00;101595.0;;;11.37;97.3
79118;BME280;68523;51.336;-0.846;2023-09-30T07:36:00;101595.0;;;11.40;97.3
79118;BME280;68523;51.336;-0.846;2023-09-30T07:39:00;101595.0;;;11.44;97.3
79118;BME280;68523;51.336;-0.846;2023-09-30T07:42:01;101605.0;;;11.54;97.3
79118;BME280;68523;51.336;-0.846;2023-09-30T07:45:01;101605.0;;;11.63;97.2
79118;BME280;68523;51.336;-0.846;2023-09-30T07:48:00;101605.0;;;11.84;96.9
79118;BME280;68523;51.336;-0.846;2023-09-30T07:51:00;101615.0;;;11.97;96.5
79118;BME280;68523;51.336;-0.846;2023-09-30T07:54:01;101615.0;;;12.15;96.2
79118;BME280;68523;51.336;-0.846;2023-09-30T07:57:01;101625.00000000001;;;12.23;95.6
79118;BME280;68523;51.336;-0.846;2023-09-30T08:00:01;101625.00000000001;;;12.46;95.1
79118;BME280;68523;51.336;-0.846;2023-09-30T08:03:01;101615.0;;;12.90;94.4
79118;BME280;68523;51.336;-0.846;2023-09-30T08:06:03;101605.0;;;13.87;89.9
79118;BME280;68523;51.336;-0.846;2023-09-30T08:09:00;101605.0;;;14.68;87.1
79118;BME280;68523;51.336;-0.846;2023-09-30T08:12:00;101605.0;;;15.19;84.2
79118;BME280;68523;51.336;-0.846;2023-09-30T08:15:00;101615.0;;;15.56;83.4
79118;BME280;68523;51.336;-0.846;2023-09-30T08:18:01;101605.0;;;15.18;83.9
79118;BME280;68523;51.336;-0.846;2023-09-30T08:21:01;101605.0;;;15.06;85.3
79118;BME280;68523;51.336;-0.846;2023-09-30T08:24:02;101605.0;;;14.90;84.7
79118;BME280;68523;51.336;-0.846;2023-09-30T08:27:00;101605.0;;;15.02;85.2
79118;BME280;68523;51.336;-0.846;2023-09-30T08:30:00;101615.0;;;14.88;85.8
79118;BME280;68523;51.336;-0.846;2023-09-30T08:33:01;101605.0;;;14.95;85.6
79118;BME280;68523;51.336;-0.846;2023-09-30T08:36:02;101605.0;;;14.88;87.0
79118;BME280;68523;51.336;-0.846;2023-09-30T08:39:00;101595.0;;;14.96;86.4
79118;BME280;68523;51.336;-0.846;2023-09-30T08:42:01;101595.0;;;14.95;85.1
79118;BME280;68523;51.336;-0.846;2023-09-30T08:45:01;101615.0;;;15.09;84.5
79118;BME280;68523;51.336;-0.846;2023-09-30T08:48:01;101615.0;;;15.19;83.7
79118;BME280;68523;51.336;-0.846;2023-09-30T08:51:01;101615.0;;;15.10;83.2
79118;BME280;68523;51.336;-0.846;2023-09-30T08:54:01;101615.0;;;15.25;83.1
79118;BME280;68523;51.336;-0.846;2023-09-30T08:57:00;101605.0;;;15.34;84.3
79118;BME280;68523;51.336;-0.846;2023-09-30T09:00:01;101595.0;;;15.41;82.9
79118;BME280;68523;51.336;-0.846;2023-09-30T09:03:01;101595.0;;;16.13;81.5
79118;BME280;68523;51.336;-0.846;2023-09-30T09:06:00;101595.0;;;15.92;80.7
79118;BME280;68523;51.336;-0.846;2023-09-30T09:09:14;101595.0;;;16.13;81.3
79118;BME280;68523;51.336;-0.846;2023-09-30T09:12:00;101595.0;;;16.36;79.9
79118;BME280;68523;51.336;-0.846;2023-09-30T09:15:01;101605.0;;;16.63;78.6
79118;BME280;68523;51.336;-0.846;2023-09-30T09:18:00;101595.0;;;16.47;76.9
79118;BME280;68523;51.336;-0.846;2023-09-30T09:21:09;101585.0;;;16.43;78.0
79118;BME280;68523;51.336;-0.846;2023-09-30T09:24:00;101575.00000000001;;;16.86;76.8
79118;BME280;68523;51.336;-0.846;2023-09-30T09:27:04;101575.00000000001;;;16.61;75.2
79118;BME280;68523;51.336;-0.846;2023-09-30T09:30:15;101575.00000000001;;;16.27;74.7
79118;BME280;68523;51.336;-0.846;2023-09-30T09:33:02;101575.00000000001;;;16.75;74.8
79118;BME280;68523;51.336;-0.846;2023-09-30T09:36:00;101575.00000000001;;;16.65;73.2
79118;BME280;68523;51.336;-0.846;2023-09-30T09:39:00;101565.0;;;16.65;72.6
79118;BME280;68523;51.336;-0.846;2023-09-30T09:42:00;101565.0;;;16.71;74.1
79118;BME280;68523;51.336;-0.846;2023-09-30T09:45:02;101575.00000000001;;;16.85;73.7
79118;BME280;68523;51.336;-0.846;2023-09-30T09:48:01;101575.00000000001;;;17.14;73.3
79118;BME280;68523;51.336;-0.846;2023-09-30T09:51:01;101575.00000000001;;;16.66;70.8
79118;BME280;68523;51.336;-0.846;2023-09-30T09:54:01;101565.0;;;16.53;72.4
79118;BME280;68523;51.336;-0.846;2023-09-30T09:57:01;101575.00000000001;;;16.81;72.1
79118;BME280;68523;51.336;-0.846;2023-09-30T10:00:03;101575.00000000001;;;16.90;73.3
79118;BME280;68523;51.336;-0.846;2023-09-30T10:03:02;101585.0;;;16.89;72.0
79118;BME280;68523;51.336;-0.846;2023-09-30T10:06:01;101585.0;;;16.80;72.4
79118;BME280;68523;51.336;-0.846;2023-09-30T10:09:01;101585.0;;;16.80;74.1
79118;BME280;68523;51.336;-0.846;2023-09-30T10:12:01;101585.0;;;16.77;72.8
79118;BME280;68523;51.336;-0.846;2023-09-30T10:15:00;101575.00000000001;;;16.59;72.5
79118;BME280;68523;51.336;-0.846;2023-09-30T10:18:01;101575.00000000001;;;16.79;73.0
79118;BME280;68523;51.336;-0.846;2023-09-30T10:21:08;101575.00000000001;;;17.01;73.3
79118;BME280;68523;51.336;-0.846;2023-09-30T10:30:07;101575.00000000001;;;17.57;73.0
79118;BME280;68523;51.336;-0.846;2023-09-30T10:33:08;101565.0;;;17.51;69.6
79118;BME280;68523;51.336;-0.846;2023-09-30T10:36:01;101565.0;;;17.87;70.1
79118;BME280;68523;51.336;-0.846;2023-09-30T10:39:02;101565.0;;;17.50;70.4
79118;BME280;68523;51.336;-0.846;2023-09-30T10:42:01;101555.0;;;17.47;71.0
79118;BME280;68523;51.336;-0.846;2023-09-30T10:45:00;101545.0;;;17.53;70.6
79118;BME280;68523;51.336;-0.846;2023-09-30T10:51:10;101535.0;;;18.66;69.3
79118;BME280;68523;51.336;-0.846;2023-09-30T10:54:01;101525.00000000001;;;18.43;67.7
79118;BME280;68523;51.336;-0.846;2023-09-30T10:57:01;101525.00000000001;;;18.96;68.5
79118;BME280;68523;51.336;-0.846;2023-09-30T11:00:08;101535.0;;;19.40;67.7
79118;BME280;68523;51.336;-0.846;2023-09-30T11:03:00;101525.00000000001;;;18.54;67.3
79118;BME280;68523;51.336;-0.846;2023-09-30T11:06:01;101525.00000000001;;;18.58;67.4
79118;BME280;68523;51.336;-0.846;2023-09-30T11:09:01;101525.00000000001;;;18.73;66.4
79118;BME280;68523;51.336;-0.846;2023-09-30T11:12:00;101525.00000000001;;;18.87;67.7
79118;BME280;68523;51.336;-0.846;2023-09-30T11:15:02;101525.00000000001;;;18.38;68.8
79118;BME280;68523;51.336;-0.846;2023-09-30T11:18:13;101515.0;;;18.38;69.3
79118;BME280;68523;51.336;-0.846;2023-09-30T11:21:06;101515.0;;;18.22;70.3
79118;BME280;68523;51.336;-0.846;2023-09-30T11:24:01;101505.0;;;18.33;70.1
79118;BME280;68523;51.336;-0.846;2023-09-30T11:27:00;101505.0;;;18.62;69.3
79118;BME280;68523;51.336;-0.846;2023-09-30T11:30:02;101515.0;;;18.81;68.6
79118;BME280;68523;51.336;-0.846;2023-09-30T11:33:00;101515.0;;;18.74;68.4
79118;BME280;68523;51.336;-0.846;2023-09-30T11:36:02;101505.0;;;19.47;66.5
79118;BME280;68523;51.336;-0.846;2023-09-30T11:39:01;101505.0;;;19.46;67.2
79118;BME280;68523;51.336;-0.846;2023-09-30T11:42:01;101495.0;;;18.72;68.2
79118;BME280;68523;51.336;-0.846;2023-09-30T11:45:00;101485.0;;;18.94;68.2
79118;BME280;68523;51.336;-0.846;2023-09-30T11:48:01;101485.0;;;18.71;69.3
79118;BME280;68523;51.336;-0.846;2023-09-30T11:51:01;101485.0;;;18.38;71.9
79118;BME280;68523;51.336;-0.846;2023-09-30T11:54:01;101485.0;;;18.36;72.1
79118;BME280;68523;51.336;-0.846;2023-09-30T11:57:01;101465.0;;;18.63;71.5
79118;BME280;68523;51.336;-0.846;2023-09-30T12:00:00;101455.0;;;20.20;66.1
79118;BME280;68523;51.336;-0.846;2023-09-30T12:03:00;101475.00000000001;;;19.70;66.8
79118;BME280;68523;51.336;-0.846;2023-09-30T12:06:00;101465.0;;;20.35;67.5
79118;BME280;68523;51.336;-0.846;2023-09-30T12:09:00;101455.0;;;19.86;66.8
79118;BME280;68523;51.336;-0.846;2023-09-30T12:12:01;101435.0;;;19.20;69.3
79118;BME280;68523;51.336;-0.846;2023-09-30T12:15:00;101425.00000000001;;;19.48;68.9
79118;BME280;68523;51.336;-0.846;2023-09-30T12:18:00;101435.0;;;19.20;69.8
79118;BME280;68523;51.336;-0.846;2023-09-30T12:21:01;101435.0;;;18.97;71.7
79118;BME280;68523;51.336;-0.846;2023-09-30T12:24:01;101435.0;;;18.91;69.6
79118;BME280;68523;51.336;-0.846;2023-09-30T12:27:01;101425.00000000001;;;19.38;69.3
79118;BME280;68523;51.336;-0.846;2023-09-30T12:30:00;101425.00000000001;;;18.90;70.1
79118;BME280;68523;51.336;-0.846;2023-09-30T12:33:01;101425.00000000001;;;18.80;71.1
79118;BME280;68523;51.336;-0.846;2023-09-30T12:36:00;101425.00000000001;;;19.54;69.7
79118;BME280;68523;51.336;-0.846;2023-09-30T12:39:00;101435.0;;;19.46;70.8
79118;BME280;68523;51.336;-0.846;2023-09-30T12:42:00;101425.00000000001;;;18.97;69.7
79118;BME280;68523;51.336;-0.846;2023-09-30T12:45:01;101425.00000000001;;;18.94;68.7
79118;BME280;68523;51.336;-0.846;2023-09-30T12:48:00;101415.0;;;20.17;67.3
79118;BME280;68523;51.336;-0.846;2023-09-30T12:51:01;101405.0;;;20.57;63.9
79118;BME280;68523;51.336;-0.846;2023-09-30T12:54:01;101405.0;;;19.84;66.6
79118;BME280;68523;51.336;-0.846;2023-09-30T12:57:00;101405.0;;;19.96;65.0
79118;BME280;68523;51.336;-0.846;2023-09-30T13:00:00;101415.0;;;20.98;63.7
79118;BME280;68523;51.336;-0.846;2023-09-30T13:03:01;101405.0;;;20.49;64.3
79118;BME280;68523;51.336;-0.846;2023-09-30T13:06:01;101405.0;;;20.43;66.4
79118;BME280;68523;51.336;-0.846;2023-09-30T13:09:01;101405.0;;;20.07;64.5
79118;BME280;68523;51.336;-0.846;2023-09-30T13:12:00;101395.0;;;19.70;66.8
79118;BME280;68523;51.336;-0.846;2023-09-30T13:15:01;101395.0;;;20.06;66.1
79118;BME280;68523;51.336;-0.846;2023-09-30T13:18:01;101385.0;;;19.79;67.0
79118;BME280;68523;51.336;-0.846;2023-09-30T13:21:00;101385.0;;;19.21;68.1
79118;BME280;68523;51.336;-0.846;2023-09-30T13:24:00;101385.0;;;19.41;68.2
79118;BME280;68523;51.336;-0.846;2023-09-30T13:27:00;101375.0;;;19.21;67.5
79118;BME280;68523;51.336;-0.846;2023-09-30T13:30:01;101375.0;;;19.60;67.6
79118;BME280;68523;51.336;-0.846;2023-09-30T13:33:00;101375.0;;;19.76;64.6
79118;BME280;68523;51.336;-0.846;2023-09-30T13:36:01;101385.0;;;19.77;61.6
79118;BME280;68523;51.336;-0.846;2023-09-30T13:39:01;101385.0;;;19.56;61.9
79118;BME280;68523;51.336;-0.846;2023-09-30T13:42:00;101385.0;;;19.39;62.4
79118;BME280;68523;51.336;-0.846;2023-09-30T13:45:01;101385.0;;;19.45;64.4
79118;BME280;68523;51.336;-0.846;2023-09-30T13:48:00;101395.0;;;19.35;64.0
79118;BME280;68523;51.336;-0.846;2023-09-30T13:51:04;101385.0;;;19.40;64.1
79118;BME280;68523;51.336;-0.846;2023-09-30T13:54:00;101385.0;;;19.20;65.0
79118;BME280;68523;51.336;-0.846;2023-09-30T13:57:01;101375.0;;;19.35;66.2
79118;BME280;68523;51.336;-0.846;2023-09-30T14:00:01;101375.0;;;19.06;65.3
79118;BME280;68523;51.336;-0.846;2023-09-30T14:03:01;101375.0;;;19.15;64.2
79118;BME280;68523;51.336;-0.846;2023-09-30T14:06:01;101375.0;;;18.93;64.1
79118;BME280;68523;51.336;-0.846;2023-09-30T14:09:00;101375.0;;;19.00;66.2
79118;BME280;68523;51.336;-0.846;2023-09-30T14:12:01;101375.0;;;18.90;67.7
79118;BME280;68523;51.336;-0.846;2023-09-30T14:15:01;101365.0;;;18.97;69.3
79118;BME280;68523;51.336;-0.846;2023-09-30T14:18:01;101355.0;;;18.79;68.8
79118;BME280;68523;51.336;-0.846;2023-09-30T14:21:01;101355.0;;;18.64;67.6
79118;BME280;68523;51.336;-0.846;2023-09-30T14:24:00;101345.0;;;18.83;67.7
79118;BME280;68523;51.336;-0.846;2023-09-30T14:27:01;101345.0;;;18.70;68.5
79118;BME280;68523;51.336;-0.846;2023-09-30T14:30:00;101345.0;;;18.41;68.0
79118;BME280;68523;51.336;-0.846;2023-09-30T14:33:01;101355.0;;;18.47;69.0
79118;BME280;68523;51.336;-0.846;2023-09-30T14:39:01;101345.0;;;18.52;67.3
79118;BME280;68523;51.336;-0.846;2023-09-30T14:42:01;101345.0;;;18.60;67.4
79118;BME280;68523;51.336;-0.846;2023-09-30T14:45:01;101345.0;;;18.64;66.9
79118;BME280;68523;51.336;-0.846;2023-09-30T14:48:01;101345.0;;;18.52;65.8
79118;BME280;68523;51.336;-0.846;2023-09-30T14:51:02;101345.0;;;18.44;66.0
79118;BME280;68523;51.336;-0.846;2023-09-30T14:54:00;101345.0;;;18.24;65.6
79118;BME280;68523;51.336;-0.846;2023-09-30T14:57:00;101335.0;;;18.39;66.3
79118;BME280;68523;51.336;-0.846;2023-09-30T15:00:01;101325.0;;;18.58;67.9
79118;BME280;68523;51.336;-0.846;2023-09-30T15:03:01;101325.0;;;18.64;66.9
79118;BME280;68523;51.336;-0.846;2023-09-30T15:06:00;101325.0;;;18.53;65.0
79118;BME280;68523;51.336;-0.846;2023-09-30T15:09:00;101325.0;;;18.60;62.1
79118;BME280;68523;51.336;-0.846;2023-09-30T15:12:01;101325.0;;;18.33;63.5
79118;BME280;68523;51.336;-0.846;2023-09-30T15:15:00;101325.0;;;18.13;63.7
79118;BME280;68523;51.336;-0.846;2023-09-30T15:18:00;101325.0;;;18.04;64.6
79118;BME280;68523;51.336;-0.846;2023-09-30T15:21:00;101305.0;;;17.99;64.5
79118;BME280;68523;51.336;-0.846;2023-09-30T15:24:00;101295.0;;;17.91;66.6
79118;BME280;68523;51.336;-0.846;2023-09-30T15:27:00;101295.0;;;18.04;66.1
79118;BME280;68523;51.336;-0.846;2023-09-30T15:30:01;101295.0;;;17.88;64.7
79118;BME280;68523;51.336;-0.846;2023-09-30T15:33:01;101295.0;;;17.73;63.8
79118;BME280;68523;51.336;-0.846;2023-09-30T15:36:08;101285.0;;;17.77;65.7
79118;BME280;68523;51.336;-0.846;2023-09-30T15:39:00;101285.0;;;17.78;65.6